sensor_id;sensor_type;location;lat;lon;timestamp;P1;durP1;ratioP1;P2;durP2;ratioP2
35699;SDS011;21818;51.078;12.108;2023-07-31T00:01:21;3.67;;;1.40;;
35699;SDS011;21818;51.078;12.108;2023-07-31T00:03:47;6.65;;;1.30;;
35699;SDS011;21818;51.078;12.108;2023-07-31T00:06:12;2.88;;;0.93;;
35699;SDS011;21818;51.078;12.108;2023-07-31T00:08:38;5.05;;;1.70;;
35699;SDS011;21818;51.078;12.108;2023-07-31T00:11:03;8.25;;;1.50;;
35699;SDS011;21818;51.078;12.108;2023-07-31T00:13:29;2.70;;;0.90;;
35699;SDS011;21818;51.078;12.108;2023-07-31T00:15:54;6.72;;;1.23;;
35699;SDS011;21818;51.078;12.108;2023-07-31T00:18:20;5.55;;;1.45;;
35699;SDS011;21818;51.078;12.108;2023-07-31T00:20:46;3.00;;;1.10;;
35699;SDS011;21818;51.078;12.108;2023-07-31T00:23:11;4.78;;;1.08;;
35699;SDS011;21818;51.078;12.108;2023-07-31T00:25:37;5.53;;;1.15;;
35699;SDS011;21818;51.078;12.108;2023-07-31T00:28:03;6.43;;;1.38;;
35699;SDS011;21818;51.078;12.108;2023-07-31T00:30:28;4.10;;;1.00;;
35699;SDS011;21818;51.078;12.108;2023-07-31T00:32:54;3.33;;;0.95;;
35699;SDS011;21818;51.078;12.108;2023-07-31T00:35:19;2.88;;;1.00;;
35699;SDS011;21818;51.078;12.108;2023-07-31T00:37:45;2.50;;;0.93;;
35699;SDS011;21818;51.078;12.108;2023-07-31T00:40:11;3.85;;;1.33;;
35699;SDS011;21818;51.078;12.108;2023-07-31T00:42:36;4.50;;;1.13;;
35699;SDS011;21818;51.078;12.108;2023-07-31T00:45:02;2.30;;;1.15;;
35699;SDS011;21818;51.078;12.108;2023-07-31T00:47:28;6.30;;;1.35;;
35699;SDS011;21818;51.078;12.108;2023-07-31T00:49:54;4.00;;;1.00;;
35699;SDS011;21818;51.078;12.108;2023-07-31T00:52:20;7.65;;;2.00;;
35699;SDS011;21818;51.078;12.108;2023-07-31T00:54:45;4.20;;;1.73;;
35699;SDS011;21818;51.078;12.108;2023-07-31T00:57:11;1.83;;;0.80;;
35699;SDS011;21818;51.078;12.108;2023-07-31T00:59:37;3.92;;;1.05;;
35699;SDS011;21818;51.078;12.108;2023-07-31T01:02:03;3.72;;;1.00;;
35699;SDS011;21818;51.078;12.108;2023-07-31T01:04:29;6.03;;;1.33;;
35699;SDS011;21818;51.078;12.108;2023-07-31T01:12:14;3.13;;;0.95;;
35699;SDS011;21818;51.078;12.108;2023-07-31T01:14:50;4.22;;;1.10;;
35699;SDS011;21818;51.078;12.108;2023-07-31T01:17:29;5.25;;;1.10;;
35699;SDS011;21818;51.078;12.108;2023-07-31T01:19:59;6.40;;;1.10;;
35699;SDS011;21818;51.078;12.108;2023-07-31T01:22:37;4.22;;;1.17;;
35699;SDS011;21818;51.078;12.108;2023-07-31T01:27:43;3.15;;;0.80;;
35699;SDS011;21818;51.078;12.108;2023-07-31T01:30:15;3.20;;;1.10;;
35699;SDS011;21818;51.078;12.108;2023-07-31T01:32:46;4.50;;;1.17;;
35699;SDS011;21818;51.078;12.108;2023-07-31T01:35:14;4.53;;;1.25;;
35699;SDS011;21818;51.078;12.108;2023-07-31T01:37:40;4.05;;;1.30;;
35699;SDS011;21818;51.078;12.108;2023-07-31T01:40:06;3.83;;;0.95;;
35699;SDS011;21818;51.078;12.108;2023-07-31T01:42:32;4.68;;;1.50;;
35699;SDS011;21818;51.078;12.108;2023-07-31T01:44:58;2.72;;;1.27;;
35699;SDS011;21818;51.078;12.108;2023-07-31T01:47:23;5.28;;;1.27;;
35699;SDS011;21818;51.078;12.108;2023-07-31T01:49:49;2.75;;;1.23;;
35699;SDS011;21818;51.078;12.108;2023-07-31T01:52:15;4.53;;;1.20;;
35699;SDS011;21818;51.078;12.108;2023-07-31T01:54:40;4.70;;;1.52;;
35699;SDS011;21818;51.078;12.108;2023-07-31T01:57:06;4.00;;;0.82;;
35699;SDS011;21818;51.078;12.108;2023-07-31T01:59:32;2.60;;;1.10;;
35699;SDS011;21818;51.078;12.108;2023-07-31T02:01:57;3.17;;;0.90;;
35699;SDS011;21818;51.078;12.108;2023-07-31T02:04:23;4.82;;;1.25;;
35699;SDS011;21818;51.078;12.108;2023-07-31T02:06:48;2.70;;;1.00;;
35699;SDS011;21818;51.078;12.108;2023-07-31T02:09:14;4.97;;;1.27;;
35699;SDS011;21818;51.078;12.108;2023-07-31T02:11:40;1.98;;;0.85;;
35699;SDS011;21818;51.078;12.108;2023-07-31T02:14:05;2.85;;;1.20;;
35699;SDS011;21818;51.078;12.108;2023-07-31T02:16:31;4.07;;;1.23;;
35699;SDS011;21818;51.078;12.108;2023-07-31T02:18:56;3.97;;;1.30;;
35699;SDS011;21818;51.078;12.108;2023-07-31T02:21:22;3.03;;;1.10;;
35699;SDS011;21818;51.078;12.108;2023-07-31T02:23:48;3.90;;;1.25;;
35699;SDS011;21818;51.078;12.108;2023-07-31T02:26:13;6.95;;;1.50;;
35699;SDS011;21818;51.078;12.108;2023-07-31T02:28:39;3.47;;;1.13;;
35699;SDS011;21818;51.078;12.108;2023-07-31T02:31:07;3.28;;;1.13;;
35699;SDS011;21818;51.078;12.108;2023-07-31T02:33:33;4.47;;;1.20;;
35699;SDS011;21818;51.078;12.108;2023-07-31T02:35:58;4.82;;;1.20;;
35699;SDS011;21818;51.078;12.108;2023-07-31T02:38:24;2.28;;;1.00;;
35699;SDS011;21818;51.078;12.108;2023-07-31T02:40:50;3.88;;;1.10;;
35699;SDS011;21818;51.078;12.108;2023-07-31T02:43:15;6.65;;;1.30;;
35699;SDS011;21818;51.078;12.108;2023-07-31T02:45:41;3.97;;;1.10;;
35699;SDS011;21818;51.078;12.108;2023-07-31T02:48:06;4.47;;;1.30;;
35699;SDS011;21818;51.078;12.108;2023-07-31T02:50:32;4.88;;;1.27;;
35699;SDS011;21818;51.078;12.108;2023-07-31T02:52:58;3.50;;;1.23;;
35699;SDS011;21818;51.078;12.108;2023-07-31T02:55:23;3.28;;;1.10;;
35699;SDS011;21818;51.078;12.108;2023-07-31T02:57:49;2.92;;;1.05;;
35699;SDS011;21818;51.078;12.108;2023-07-31T03:00:15;5.97;;;1.40;;
35699;SDS011;21818;51.078;12.108;2023-07-31T03:02:41;5.10;;;1.30;;
35699;SDS011;21818;51.078;12.108;2023-07-31T03:05:06;5.32;;;1.15;;
35699;SDS011;21818;51.078;12.108;2023-07-31T03:07:32;4.97;;;1.90;;
35699;SDS011;21818;51.078;12.108;2023-07-31T03:09:58;2.53;;;1.00;;
35699;SDS011;21818;51.078;12.108;2023-07-31T03:12:24;4.13;;;1.25;;
35699;SDS011;21818;51.078;12.108;2023-07-31T03:14:49;5.78;;;1.25;;
35699;SDS011;21818;51.078;12.108;2023-07-31T03:17:15;2.05;;;1.10;;
35699;SDS011;21818;51.078;12.108;2023-07-31T03:19:40;7.45;;;2.13;;
35699;SDS011;21818;51.078;12.108;2023-07-31T03:22:06;3.22;;;1.08;;
35699;SDS011;21818;51.078;12.108;2023-07-31T03:24:31;3.00;;;1.45;;
35699;SDS011;21818;51.078;12.108;2023-07-31T03:26:57;4.47;;;1.30;;
35699;SDS011;21818;51.078;12.108;2023-07-31T03:29:23;4.65;;;1.45;;
35699;SDS011;21818;51.078;12.108;2023-07-31T03:31:48;2.78;;;1.00;;
35699;SDS011;21818;51.078;12.108;2023-07-31T03:34:14;5.03;;;1.83;;
35699;SDS011;21818;51.078;12.108;2023-07-31T03:36:39;3.58;;;1.77;;
35699;SDS011;21818;51.078;12.108;2023-07-31T03:39:05;4.97;;;1.45;;
35699;SDS011;21818;51.078;12.108;2023-07-31T03:41:31;4.13;;;1.60;;
35699;SDS011;21818;51.078;12.108;2023-07-31T03:43:56;3.78;;;1.30;;
35699;SDS011;21818;51.078;12.108;2023-07-31T03:46:22;4.10;;;1.50;;
35699;SDS011;21818;51.078;12.108;2023-07-31T03:48:49;3.03;;;1.13;;
35699;SDS011;21818;51.078;12.108;2023-07-31T03:51:15;3.55;;;1.45;;
35699;SDS011;21818;51.078;12.108;2023-07-31T03:53:41;7.30;;;1.38;;
35699;SDS011;21818;51.078;12.108;2023-07-31T03:56:07;4.50;;;1.42;;
35699;SDS011;21818;51.078;12.108;2023-07-31T03:58:32;2.97;;;1.35;;
35699;SDS011;21818;51.078;12.108;2023-07-31T04:00:58;6.55;;;2.35;;
35699;SDS011;21818;51.078;12.108;2023-07-31T04:03:24;3.63;;;1.52;;
35699;SDS011;21818;51.078;12.108;2023-07-31T04:05:49;4.00;;;1.35;;
35699;SDS011;21818;51.078;12.108;2023-07-31T04:08:15;4.88;;;1.30;;
35699;SDS011;21818;51.078;12.108;2023-07-31T04:10:40;4.30;;;1.30;;
35699;SDS011;21818;51.078;12.108;2023-07-31T04:13:06;7.03;;;2.13;;
35699;SDS011;21818;51.078;12.108;2023-07-31T04:15:31;5.63;;;1.48;;
35699;SDS011;21818;51.078;12.108;2023-07-31T04:17:57;2.67;;;1.08;;
35699;SDS011;21818;51.078;12.108;2023-07-31T04:20:22;5.53;;;1.23;;
35699;SDS011;21818;51.078;12.108;2023-07-31T04:22:48;2.83;;;1.45;;
35699;SDS011;21818;51.078;12.108;2023-07-31T04:25:14;5.63;;;1.30;;
35699;SDS011;21818;51.078;12.108;2023-07-31T04:27:40;4.82;;;1.25;;
35699;SDS011;21818;51.078;12.108;2023-07-31T04:30:05;4.85;;;1.38;;
35699;SDS011;21818;51.078;12.108;2023-07-31T04:32:31;4.35;;;1.50;;
35699;SDS011;21818;51.078;12.108;2023-07-31T04:34:57;4.60;;;1.55;;
35699;SDS011;21818;51.078;12.108;2023-07-31T04:37:23;5.93;;;1.65;;
35699;SDS011;21818;51.078;12.108;2023-07-31T04:39:48;5.13;;;1.23;;
35699;SDS011;21818;51.078;12.108;2023-07-31T04:42:14;6.07;;;1.55;;
35699;SDS011;21818;51.078;12.108;2023-07-31T04:44:39;3.92;;;1.45;;
35699;SDS011;21818;51.078;12.108;2023-07-31T04:47:05;7.35;;;2.00;;
35699;SDS011;21818;51.078;12.108;2023-07-31T04:49:31;5.07;;;1.80;;
35699;SDS011;21818;51.078;12.108;2023-07-31T04:51:57;6.50;;;1.70;;
35699;SDS011;21818;51.078;12.108;2023-07-31T04:54:23;5.22;;;1.50;;
35699;SDS011;21818;51.078;12.108;2023-07-31T04:56:49;7.30;;;1.45;;
35699;SDS011;21818;51.078;12.108;2023-07-31T04:59:14;2.80;;;1.25;;
35699;SDS011;21818;51.078;12.108;2023-07-31T05:01:40;2.75;;;1.60;;
35699;SDS011;21818;51.078;12.108;2023-07-31T05:04:05;5.90;;;1.40;;
35699;SDS011;21818;51.078;12.108;2023-07-31T05:06:32;4.85;;;1.73;;
35699;SDS011;21818;51.078;12.108;2023-07-31T05:08:57;5.47;;;1.73;;
35699;SDS011;21818;51.078;12.108;2023-07-31T05:11:23;6.53;;;1.52;;
35699;SDS011;21818;51.078;12.108;2023-07-31T05:13:49;2.78;;;1.33;;
35699;SDS011;21818;51.078;12.108;2023-07-31T05:16:14;3.15;;;1.40;;
35699;SDS011;21818;51.078;12.108;2023-07-31T05:18:40;5.03;;;1.25;;
35699;SDS011;21818;51.078;12.108;2023-07-31T05:21:05;4.35;;;1.45;;
35699;SDS011;21818;51.078;12.108;2023-07-31T05:23:31;6.13;;;2.17;;
35699;SDS011;21818;51.078;12.108;2023-07-31T05:26:04;6.43;;;1.77;;
35699;SDS011;21818;51.078;12.108;2023-07-31T05:28:30;5.32;;;1.52;;
35699;SDS011;21818;51.078;12.108;2023-07-31T05:30:59;8.10;;;1.67;;
35699;SDS011;21818;51.078;12.108;2023-07-31T05:33:26;7.45;;;2.08;;
35699;SDS011;21818;51.078;12.108;2023-07-31T05:35:51;3.97;;;1.77;;
35699;SDS011;21818;51.078;12.108;2023-07-31T05:38:17;7.13;;;1.45;;
35699;SDS011;21818;51.078;12.108;2023-07-31T05:40:43;4.72;;;1.48;;
35699;SDS011;21818;51.078;12.108;2023-07-31T05:43:08;4.47;;;1.30;;
35699;SDS011;21818;51.078;12.108;2023-07-31T05:45:34;8.02;;;1.90;;
35699;SDS011;21818;51.078;12.108;2023-07-31T05:48:00;6.10;;;1.73;;
35699;SDS011;21818;51.078;12.108;2023-07-31T05:50:26;9.23;;;1.75;;
35699;SDS011;21818;51.078;12.108;2023-07-31T05:52:51;5.28;;;1.75;;
35699;SDS011;21818;51.078;12.108;2023-07-31T05:55:17;6.35;;;1.83;;
35699;SDS011;21818;51.078;12.108;2023-07-31T05:57:43;7.50;;;2.15;;
35699;SDS011;21818;51.078;12.108;2023-07-31T06:00:10;4.55;;;1.40;;
35699;SDS011;21818;51.078;12.108;2023-07-31T06:02:37;4.45;;;1.40;;
35699;SDS011;21818;51.078;12.108;2023-07-31T06:05:03;4.43;;;1.50;;
35699;SDS011;21818;51.078;12.108;2023-07-31T06:07:30;4.43;;;1.42;;
35699;SDS011;21818;51.078;12.108;2023-07-31T06:09:56;5.53;;;1.58;;
35699;SDS011;21818;51.078;12.108;2023-07-31T06:12:27;2.78;;;1.33;;
35699;SDS011;21818;51.078;12.108;2023-07-31T06:14:52;3.80;;;1.70;;
35699;SDS011;21818;51.078;12.108;2023-07-31T06:17:18;4.18;;;1.40;;
35699;SDS011;21818;51.078;12.108;2023-07-31T06:19:43;6.03;;;1.55;;
35699;SDS011;21818;51.078;12.108;2023-07-31T06:22:09;3.05;;;1.40;;
35699;SDS011;21818;51.078;12.108;2023-07-31T06:24:34;5.35;;;1.38;;
35699;SDS011;21818;51.078;12.108;2023-07-31T06:27:00;5.15;;;1.50;;
35699;SDS011;21818;51.078;12.108;2023-07-31T06:29:28;5.93;;;1.52;;
35699;SDS011;21818;51.078;12.108;2023-07-31T06:31:53;5.10;;;1.30;;
35699;SDS011;21818;51.078;12.108;2023-07-31T06:34:19;2.17;;;1.17;;
35699;SDS011;21818;51.078;12.108;2023-07-31T06:36:44;5.82;;;1.20;;
35699;SDS011;21818;51.078;12.108;2023-07-31T06:39:10;3.80;;;1.50;;
35699;SDS011;21818;51.078;12.108;2023-07-31T06:41:35;6.22;;;1.60;;
35699;SDS011;21818;51.078;12.108;2023-07-31T06:44:01;3.17;;;1.30;;
35699;SDS011;21818;51.078;12.108;2023-07-31T06:46:27;4.43;;;1.50;;
35699;SDS011;21818;51.078;12.108;2023-07-31T06:48:52;4.97;;;1.60;;
35699;SDS011;21818;51.078;12.108;2023-07-31T06:51:18;3.47;;;1.63;;
35699;SDS011;21818;51.078;12.108;2023-07-31T06:53:43;7.05;;;1.42;;
35699;SDS011;21818;51.078;12.108;2023-07-31T06:56:10;5.35;;;1.45;;
35699;SDS011;21818;51.078;12.108;2023-07-31T06:58:36;4.22;;;1.75;;
35699;SDS011;21818;51.078;12.108;2023-07-31T07:01:01;5.00;;;1.27;;
35699;SDS011;21818;51.078;12.108;2023-07-31T07:03:27;6.90;;;1.98;;
35699;SDS011;21818;51.078;12.108;2023-07-31T07:05:52;4.80;;;1.50;;
35699;SDS011;21818;51.078;12.108;2023-07-31T07:08:18;5.40;;;1.40;;
35699;SDS011;21818;51.078;12.108;2023-07-31T07:10:43;5.78;;;1.38;;
35699;SDS011;21818;51.078;12.108;2023-07-31T07:13:09;5.70;;;1.48;;
35699;SDS011;21818;51.078;12.108;2023-07-31T07:15:35;4.15;;;1.48;;
35699;SDS011;21818;51.078;12.108;2023-07-31T07:18:00;5.38;;;1.40;;
35699;SDS011;21818;51.078;12.108;2023-07-31T07:20:26;2.70;;;1.33;;
35699;SDS011;21818;51.078;12.108;2023-07-31T07:22:52;5.43;;;2.05;;
35699;SDS011;21818;51.078;12.108;2023-07-31T07:25:17;3.33;;;1.45;;
35699;SDS011;21818;51.078;12.108;2023-07-31T07:27:43;5.60;;;1.90;;
35699;SDS011;21818;51.078;12.108;2023-07-31T07:30:09;6.13;;;1.60;;
35699;SDS011;21818;51.078;12.108;2023-07-31T07:32:34;5.68;;;1.77;;
35699;SDS011;21818;51.078;12.108;2023-07-31T07:35:00;2.78;;;1.27;;
35699;SDS011;21818;51.078;12.108;2023-07-31T07:37:26;6.47;;;1.92;;
35699;SDS011;21818;51.078;12.108;2023-07-31T07:39:51;4.53;;;1.77;;
35699;SDS011;21818;51.078;12.108;2023-07-31T07:42:17;5.50;;;1.55;;
35699;SDS011;21818;51.078;12.108;2023-07-31T07:44:43;6.10;;;1.70;;
35699;SDS011;21818;51.078;12.108;2023-07-31T07:47:08;4.38;;;2.30;;
35699;SDS011;21818;51.078;12.108;2023-07-31T07:49:34;4.65;;;2.42;;
35699;SDS011;21818;51.078;12.108;2023-07-31T07:52:00;4.53;;;1.63;;
35699;SDS011;21818;51.078;12.108;2023-07-31T07:54:27;4.00;;;1.58;;
35699;SDS011;21818;51.078;12.108;2023-07-31T07:56:53;4.50;;;1.45;;
35699;SDS011;21818;51.078;12.108;2023-07-31T07:59:18;6.07;;;1.80;;
35699;SDS011;21818;51.078;12.108;2023-07-31T08:01:44;5.05;;;1.85;;
35699;SDS011;21818;51.078;12.108;2023-07-31T08:04:09;6.47;;;1.80;;
35699;SDS011;21818;51.078;12.108;2023-07-31T08:06:35;5.55;;;1.67;;
35699;SDS011;21818;51.078;12.108;2023-07-31T08:09:00;6.70;;;1.95;;
35699;SDS011;21818;51.078;12.108;2023-07-31T08:11:31;5.68;;;1.90;;
35699;SDS011;21818;51.078;12.108;2023-07-31T08:13:59;3.42;;;1.75;;
35699;SDS011;21818;51.078;12.108;2023-07-31T08:16:25;4.30;;;1.80;;
35699;SDS011;21818;51.078;12.108;2023-07-31T08:18:51;7.60;;;2.00;;
35699;SDS011;21818;51.078;12.108;2023-07-31T08:21:16;6.97;;;1.98;;
35699;SDS011;21818;51.078;12.108;2023-07-31T08:23:42;3.88;;;2.05;;
35699;SDS011;21818;51.078;12.108;2023-07-31T08:26:08;4.35;;;1.73;;
35699;SDS011;21818;51.078;12.108;2023-07-31T08:28:39;4.63;;;2.10;;
35699;SDS011;21818;51.078;12.108;2023-07-31T08:31:05;3.97;;;1.75;;
35699;SDS011;21818;51.078;12.108;2023-07-31T08:33:30;3.70;;;1.92;;
35699;SDS011;21818;51.078;12.108;2023-07-31T08:35:56;4.55;;;1.75;;
35699;SDS011;21818;51.078;12.108;2023-07-31T08:38:22;7.13;;;2.10;;
35699;SDS011;21818;51.078;12.108;2023-07-31T08:40:50;4.18;;;1.58;;
35699;SDS011;21818;51.078;12.108;2023-07-31T08:43:16;2.78;;;1.65;;
35699;SDS011;21818;51.078;12.108;2023-07-31T08:45:41;3.92;;;1.50;;
35699;SDS011;21818;51.078;12.108;2023-07-31T08:48:08;7.05;;;2.58;;
35699;SDS011;21818;51.078;12.108;2023-07-31T08:50:33;3.38;;;1.50;;
35699;SDS011;21818;51.078;12.108;2023-07-31T08:52:59;3.95;;;2.20;;
35699;SDS011;21818;51.078;12.108;2023-07-31T08:55:25;6.28;;;2.10;;
35699;SDS011;21818;51.078;12.108;2023-07-31T08:57:52;6.93;;;1.75;;
35699;SDS011;21818;51.078;12.108;2023-07-31T09:00:18;5.43;;;2.03;;
35699;SDS011;21818;51.078;12.108;2023-07-31T09:05:23;2.70;;;1.63;;
35699;SDS011;21818;51.078;12.108;2023-07-31T09:07:51;5.65;;;2.28;;
35699;SDS011;21818;51.078;12.108;2023-07-31T09:10:16;5.35;;;1.77;;
35699;SDS011;21818;51.078;12.108;2023-07-31T09:12:42;4.50;;;1.80;;
35699;SDS011;21818;51.078;12.108;2023-07-31T09:15:08;3.50;;;1.58;;
35699;SDS011;21818;51.078;12.108;2023-07-31T09:17:35;3.58;;;1.50;;
35699;SDS011;21818;51.078;12.108;2023-07-31T09:20:12;3.95;;;1.92;;
35699;SDS011;21818;51.078;12.108;2023-07-31T09:22:39;5.50;;;2.30;;
35699;SDS011;21818;51.078;12.108;2023-07-31T09:27:50;5.88;;;1.58;;
35699;SDS011;21818;51.078;12.108;2023-07-31T09:30:25;3.80;;;2.28;;
35699;SDS011;21818;51.078;12.108;2023-07-31T09:32:51;4.07;;;1.95;;
35699;SDS011;21818;51.078;12.108;2023-07-31T09:35:32;6.03;;;2.00;;
35699;SDS011;21818;51.078;12.108;2023-07-31T09:38:11;4.55;;;1.70;;
35699;SDS011;21818;51.078;12.108;2023-07-31T09:40:42;3.80;;;1.60;;
35699;SDS011;21818;51.078;12.108;2023-07-31T09:43:10;4.93;;;2.00;;
35699;SDS011;21818;51.078;12.108;2023-07-31T09:45:44;8.30;;;2.45;;
35699;SDS011;21818;51.078;12.108;2023-07-31T09:48:14;6.05;;;1.77;;
35699;SDS011;21818;51.078;12.108;2023-07-31T09:50:43;5.20;;;2.20;;
35699;SDS011;21818;51.078;12.108;2023-07-31T09:53:10;8.00;;;2.15;;
35699;SDS011;21818;51.078;12.108;2023-07-31T09:55:37;6.88;;;2.10;;
35699;SDS011;21818;51.078;12.108;2023-07-31T09:58:04;4.40;;;2.05;;
35699;SDS011;21818;51.078;12.108;2023-07-31T10:00:31;4.00;;;1.60;;
35699;SDS011;21818;51.078;12.108;2023-07-31T10:02:58;4.15;;;1.85;;
35699;SDS011;21818;51.078;12.108;2023-07-31T10:05:27;5.78;;;2.40;;
35699;SDS011;21818;51.078;12.108;2023-07-31T10:07:59;6.13;;;2.03;;
35699;SDS011;21818;51.078;12.108;2023-07-31T10:10:25;5.00;;;1.88;;
35699;SDS011;21818;51.078;12.108;2023-07-31T10:12:52;5.80;;;1.77;;
35699;SDS011;21818;51.078;12.108;2023-07-31T10:15:19;4.60;;;2.05;;
35699;SDS011;21818;51.078;12.108;2023-07-31T10:17:48;2.53;;;1.70;;
35699;SDS011;21818;51.078;12.108;2023-07-31T10:20:15;4.50;;;1.88;;
35699;SDS011;21818;51.078;12.108;2023-07-31T10:22:41;2.97;;;1.60;;
35699;SDS011;21818;51.078;12.108;2023-07-31T10:25:08;2.20;;;1.42;;
35699;SDS011;21818;51.078;12.108;2023-07-31T10:27:38;5.55;;;1.60;;
35699;SDS011;21818;51.078;12.108;2023-07-31T10:30:04;4.65;;;1.88;;
35699;SDS011;21818;51.078;12.108;2023-07-31T10:32:32;4.70;;;1.85;;
35699;SDS011;21818;51.078;12.108;2023-07-31T10:35:00;5.10;;;1.70;;
35699;SDS011;21818;51.078;12.108;2023-07-31T10:37:28;2.90;;;1.80;;
35699;SDS011;21818;51.078;12.108;2023-07-31T10:39:59;3.50;;;1.58;;
35699;SDS011;21818;51.078;12.108;2023-07-31T10:45:05;5.30;;;1.73;;
35699;SDS011;21818;51.078;12.108;2023-07-31T10:47:45;5.43;;;2.08;;
35699;SDS011;21818;51.078;12.108;2023-07-31T10:50:20;4.97;;;2.45;;
35699;SDS011;21818;51.078;12.108;2023-07-31T10:52:49;4.07;;;1.92;;
35699;SDS011;21818;51.078;12.108;2023-07-31T10:57:51;3.45;;;1.63;;
35699;SDS011;21818;51.078;12.108;2023-07-31T11:00:20;4.22;;;1.60;;
35699;SDS011;21818;51.078;12.108;2023-07-31T11:03:03;4.75;;;2.00;;
35699;SDS011;21818;51.078;12.108;2023-07-31T11:05:45;4.97;;;1.77;;
35699;SDS011;21818;51.078;12.108;2023-07-31T11:10:37;5.55;;;2.08;;
35699;SDS011;21818;51.078;12.108;2023-07-31T11:13:04;4.47;;;1.70;;
35699;SDS011;21818;51.078;12.108;2023-07-31T11:15:30;5.03;;;2.10;;
35699;SDS011;21818;51.078;12.108;2023-07-31T11:17:56;5.18;;;2.13;;
35699;SDS011;21818;51.078;12.108;2023-07-31T11:20:25;3.58;;;2.00;;
35699;SDS011;21818;51.078;12.108;2023-07-31T11:22:50;6.63;;;2.13;;
35699;SDS011;21818;51.078;12.108;2023-07-31T11:25:16;6.65;;;2.45;;
35699;SDS011;21818;51.078;12.108;2023-07-31T11:27:42;5.00;;;1.98;;
35699;SDS011;21818;51.078;12.108;2023-07-31T11:30:09;4.95;;;2.22;;
35699;SDS011;21818;51.078;12.108;2023-07-31T11:32:37;5.97;;;2.28;;
35699;SDS011;21818;51.078;12.108;2023-07-31T11:35:03;5.10;;;2.10;;
35699;SDS011;21818;51.078;12.108;2023-07-31T11:40:09;4.75;;;1.83;;
35699;SDS011;21818;51.078;12.108;2023-07-31T11:42:35;3.22;;;1.75;;
35699;SDS011;21818;51.078;12.108;2023-07-31T11:45:10;4.05;;;2.00;;
35699;SDS011;21818;51.078;12.108;2023-07-31T11:47:37;6.45;;;2.30;;
35699;SDS011;21818;51.078;12.108;2023-07-31T11:50:03;3.85;;;2.10;;
35699;SDS011;21818;51.078;12.108;2023-07-31T11:52:32;3.90;;;2.10;;
35699;SDS011;21818;51.078;12.108;2023-07-31T11:55:02;6.72;;;2.10;;
35699;SDS011;21818;51.078;12.108;2023-07-31T11:57:29;7.00;;;2.35;;
35699;SDS011;21818;51.078;12.108;2023-07-31T11:59:55;5.32;;;2.25;;
35699;SDS011;21818;51.078;12.108;2023-07-31T12:02:21;4.43;;;2.15;;
35699;SDS011;21818;51.078;12.108;2023-07-31T12:04:47;3.83;;;1.95;;
35699;SDS011;21818;51.078;12.108;2023-07-31T12:07:13;5.63;;;1.88;;
35699;SDS011;21818;51.078;12.108;2023-07-31T12:09:50;4.55;;;2.00;;
35699;SDS011;21818;51.078;12.108;2023-07-31T12:12:19;4.68;;;2.13;;
35699;SDS011;21818;51.078;12.108;2023-07-31T12:14:47;5.63;;;2.05;;
35699;SDS011;21818;51.078;12.108;2023-07-31T12:17:13;5.32;;;2.20;;
35699;SDS011;21818;51.078;12.108;2023-07-31T12:19:40;5.13;;;2.40;;
35699;SDS011;21818;51.078;12.108;2023-07-31T12:22:12;4.28;;;1.83;;
35699;SDS011;21818;51.078;12.108;2023-07-31T12:24:40;4.15;;;1.80;;
35699;SDS011;21818;51.078;12.108;2023-07-31T12:27:10;5.95;;;1.95;;
35699;SDS011;21818;51.078;12.108;2023-07-31T12:29:39;5.63;;;2.20;;
35699;SDS011;21818;51.078;12.108;2023-07-31T12:32:22;8.45;;;2.55;;
35699;SDS011;21818;51.078;12.108;2023-07-31T12:34:49;4.50;;;2.08;;
35699;SDS011;21818;51.078;12.108;2023-07-31T12:37:15;4.10;;;1.77;;
35699;SDS011;21818;51.078;12.108;2023-07-31T12:39:41;4.88;;;2.20;;
35699;SDS011;21818;51.078;12.108;2023-07-31T12:42:07;5.00;;;2.13;;
35699;SDS011;21818;51.078;12.108;2023-07-31T12:44:32;5.82;;;2.28;;
35699;SDS011;21818;51.078;12.108;2023-07-31T12:46:58;6.10;;;2.03;;
35699;SDS011;21818;51.078;12.108;2023-07-31T12:49:24;5.65;;;2.17;;
35699;SDS011;21818;51.078;12.108;2023-07-31T12:51:49;4.72;;;2.47;;
35699;SDS011;21818;51.078;12.108;2023-07-31T12:54:15;3.53;;;1.92;;
35699;SDS011;21818;51.078;12.108;2023-07-31T12:56:40;4.07;;;1.75;;
35699;SDS011;21818;51.078;12.108;2023-07-31T12:59:06;5.65;;;2.00;;
35699;SDS011;21818;51.078;12.108;2023-07-31T13:01:32;3.92;;;1.98;;
35699;SDS011;21818;51.078;12.108;2023-07-31T13:03:57;4.68;;;1.88;;
35699;SDS011;21818;51.078;12.108;2023-07-31T13:06:24;4.85;;;2.00;;
35699;SDS011;21818;51.078;12.108;2023-07-31T13:08:50;4.60;;;2.08;;
35699;SDS011;21818;51.078;12.108;2023-07-31T13:11:16;22.60;;;4.30;;
35699;SDS011;21818;51.078;12.108;2023-07-31T13:13:41;9.57;;;4.13;;
35699;SDS011;21818;51.078;12.108;2023-07-31T13:16:07;14.02;;;4.32;;
35699;SDS011;21818;51.078;12.108;2023-07-31T13:18:33;11.27;;;2.90;;
35699;SDS011;21818;51.078;12.108;2023-07-31T13:20:58;7.72;;;3.53;;
35699;SDS011;21818;51.078;12.108;2023-07-31T13:23:24;9.27;;;3.38;;
35699;SDS011;21818;51.078;12.108;2023-07-31T13:25:49;9.95;;;3.10;;
35699;SDS011;21818;51.078;12.108;2023-07-31T13:28:15;13.55;;;4.28;;
35699;SDS011;21818;51.078;12.108;2023-07-31T13:30:41;8.52;;;3.20;;
35699;SDS011;21818;51.078;12.108;2023-07-31T13:33:06;7.95;;;3.85;;
35699;SDS011;21818;51.078;12.108;2023-07-31T13:35:32;14.70;;;3.60;;
35699;SDS011;21818;51.078;12.108;2023-07-31T13:37:57;5.43;;;2.80;;
35699;SDS011;21818;51.078;12.108;2023-07-31T13:40:23;6.75;;;2.80;;
35699;SDS011;21818;51.078;12.108;2023-07-31T13:42:48;8.05;;;3.20;;
35699;SDS011;21818;51.078;12.108;2023-07-31T13:45:14;8.68;;;2.33;;
35699;SDS011;21818;51.078;12.108;2023-07-31T13:47:40;7.05;;;3.08;;
35699;SDS011;21818;51.078;12.108;2023-07-31T13:50:05;5.97;;;2.50;;
35699;SDS011;21818;51.078;12.108;2023-07-31T13:52:31;6.47;;;2.35;;
35699;SDS011;21818;51.078;12.108;2023-07-31T13:54:57;7.43;;;2.33;;
35699;SDS011;21818;51.078;12.108;2023-07-31T13:57:22;6.70;;;2.05;;
35699;SDS011;21818;51.078;12.108;2023-07-31T13:59:48;6.93;;;2.50;;
35699;SDS011;21818;51.078;12.108;2023-07-31T14:02:14;3.72;;;2.00;;
35699;SDS011;21818;51.078;12.108;2023-07-31T14:04:40;3.85;;;1.83;;
35699;SDS011;21818;51.078;12.108;2023-07-31T14:07:05;6.50;;;2.03;;
35699;SDS011;21818;51.078;12.108;2023-07-31T14:09:31;6.07;;;2.47;;
35699;SDS011;21818;51.078;12.108;2023-07-31T14:11:57;3.38;;;2.10;;
35699;SDS011;21818;51.078;12.108;2023-07-31T14:14:22;3.97;;;1.95;;
35699;SDS011;21818;51.078;12.108;2023-07-31T14:16:48;3.58;;;1.90;;
35699;SDS011;21818;51.078;12.108;2023-07-31T14:19:14;3.70;;;1.73;;
35699;SDS011;21818;51.078;12.108;2023-07-31T14:21:39;4.60;;;1.92;;
35699;SDS011;21818;51.078;12.108;2023-07-31T14:24:05;4.45;;;1.88;;
35699;SDS011;21818;51.078;12.108;2023-07-31T14:26:32;2.75;;;1.65;;
35699;SDS011;21818;51.078;12.108;2023-07-31T14:28:57;3.35;;;1.88;;
35699;SDS011;21818;51.078;12.108;2023-07-31T14:31:23;3.88;;;1.60;;
35699;SDS011;21818;51.078;12.108;2023-07-31T14:33:48;7.40;;;2.00;;
35699;SDS011;21818;51.078;12.108;2023-07-31T14:36:15;4.38;;;1.95;;
35699;SDS011;21818;51.078;12.108;2023-07-31T14:38:40;6.50;;;1.73;;
35699;SDS011;21818;51.078;12.108;2023-07-31T14:41:06;4.97;;;2.00;;
35699;SDS011;21818;51.078;12.108;2023-07-31T14:43:32;3.50;;;1.33;;
35699;SDS011;21818;51.078;12.108;2023-07-31T14:45:57;4.88;;;2.22;;
35699;SDS011;21818;51.078;12.108;2023-07-31T14:48:25;3.50;;;1.95;;
35699;SDS011;21818;51.078;12.108;2023-07-31T14:50:52;5.18;;;1.83;;
35699;SDS011;21818;51.078;12.108;2023-07-31T14:53:17;5.18;;;1.90;;